Atlantic - Newfoundland: Past 24 Hour Conditions

 

St. John's Int'l Airport

09:30 PM NDT 23 July 2014
This table is a summary of hourly weather conditions for the past 24 hours.
Date / Time
(NDT)
Wind(knots) Conditions Visibility(km) Pressure(kPa) Air tempC) Relative humidity(%) Dew pointC) Humidex
23 July 2014
21:30 W 22 gust 28 Partly Cloudy 24 100.9 19 82 16 *
20:30 W 18 gust 24 Mostly Cloudy 24 100.9 20 77 16 25
19:30 WSW 20 Mostly Cloudy 24 100.9 22 71 16 27
18:30 WSW 21 gust 28 Partly Cloudy 24 100.9 23 64 16 28
17:30 WSW 16 gust 27 Partly Cloudy 24 100.9 25 61 17 30
16:30 WSW 20 gust 31 Partly Cloudy 24 100.9 24 63 17 29
15:30 WSW 19 gust 26 Mostly Cloudy 24 100.9 22 69 16 27
14:30 WSW 18 gust 30 Mostly Cloudy 24 100.9 22 72 16 26
13:30 WSW 20 Light Rainshower 24 101.0 22 72 17 27
12:30 SW 13 gust 22 Light Rainshower 24 101.0 19 86 16 *
11:30 WSW 15 gust 25 Cloudy 24 101.0 22 65 15 25
10:30 SW 11 gust 18 Cloudy 24 101.1 20 68 14 *
9:30 WSW 11 gust 18 Light Rainshower 24 101.1 18 75 14 *
8:30 W 14 gust 20 Cloudy 24 101.1 17 74 13 *
7:30 WSW 11 gust 17 Cloudy 24 101.1 17 73 12 *
6:30 WSW 15 Cloudy 24 101.2 16 67 10 *
5:30 W 16 gust 21 Mostly Cloudy 24 101.1 16 63 9 *
4:30 WSW 16 Partly Cloudy 24 101.2 16 59 9 *
3:30 WSW 14 Partly Cloudy 24 101.2 16 62 9 *
2:30 W 15 Mostly Cloudy 24 101.2 16 62 9 *
1:30 W 15 Partly Cloudy 24 101.3 16 60 8 *
0:30 WSW 17 gust 23 Mainly Clear 24 101.3 16 56 8 *
22 July 2014
23:30 WSW 15 Clear 24 101.3 17 55 8 *
22:30 W 12 Mainly Clear 24 101.3 18 50 8 *
21:30 WSW 12 Mainly Clear 24 101.3 19 47 8 *
 
Map of Atlantic - Newfoundland marine weather areas Southwestern Grand Banks - 44138 Banquereau - 44139 Tail of the Bank - 44140 Nickerson Bank - 44251 Northeast Burgeo Bank - 44255 Blanc-Sablon Airport Cap Whittle Chevery Natashquan Airport Heath Point Miscou Island Grand Étang Ingonish Beach North Mountain St.Paul Island J.A. Douglas McCurdy Sydney Airport Charlottetown Airport East Point North Cape Argentia Bonavista Burgeo Cape Race Corner Brook Daniel's Harbour Englee Ferolle Point La Scie Port aux Basques Rocky Harbour Sagona Island St. Anthony Airport St. John's Int'l Airport St. Lawrence Stephenville Airport Twillingate Winterland Wreckhouse Cartwright Airport Mary's Harbour Grates Cove Pool's Island Marticot Island Long Pond Îles de la Madeleine Airport
Legend: buoyBuoy land stationLand Station